createdAt,value
2017-10-09T00:02:07.900Z,82.05
2017-10-09T00:04:35.456Z,82.28
2017-10-09T00:07:02.942Z,82.09
2017-10-09T00:09:30.429Z,82.12
2017-10-09T00:11:57.926Z,82.62
2017-10-09T00:14:25.683Z,82.28
2017-10-09T00:16:53.171Z,82.18
2017-10-09T00:19:20.660Z,82.67
2017-10-09T00:21:48.342Z,82.28
2017-10-09T00:24:15.832Z,82.50
2017-10-09T00:26:43.320Z,82.66
2017-10-09T00:29:10.852Z,82.52
2017-10-09T00:31:38.336Z,82.20
2017-10-09T00:34:05.820Z,82.49
2017-10-09T00:36:33.420Z,82.13
2017-10-09T00:39:00.896Z,82.16
2017-10-09T00:41:28.372Z,81.99
2017-10-09T00:43:56.298Z,82.07
2017-10-09T00:46:23.785Z,82.19
2017-10-09T00:48:51.263Z,81.98
2017-10-09T00:51:18.786Z,81.81
2017-10-09T00:53:46.291Z,82.17
2017-10-09T00:56:13.769Z,82.06
2017-10-09T00:58:41.301Z,82.02
2017-10-09T01:01:08.831Z,81.85
2017-10-09T01:03:36.316Z,82.02
2017-10-09T01:06:03.915Z,82.25
2017-10-09T01:08:31.674Z,82.21
2017-10-09T01:10:59.155Z,82.44
2017-10-09T01:13:26.665Z,82.51
2017-10-09T01:15:54.190Z,82.44
2017-10-09T01:18:21.712Z,82.67
2017-10-09T01:20:49.200Z,82.87
2017-10-09T01:23:16.852Z,82.89
2017-10-09T01:25:44.395Z,82.96
2017-10-09T01:28:11.876Z,83.11
2017-10-09T01:30:39.511Z,83.18
2017-10-09T01:33:06.993Z,83.41
2017-10-09T01:35:34.479Z,83.49
2017-10-09T01:38:02.186Z,83.60
2017-10-09T01:40:29.760Z,83.74
2017-10-09T01:42:57.246Z,83.93
2017-10-09T01:45:24.862Z,84.05
2017-10-09T01:47:52.340Z,84.19
2017-10-09T01:50:19.904Z,84.47
2017-10-09T01:52:47.438Z,84.55
2017-10-09T01:55:14.947Z,84.65
2017-10-09T01:57:42.472Z,84.78
2017-10-09T02:00:10.003Z,84.97
2017-10-09T02:02:37.575Z,85.17
2017-10-09T02:05:05.081Z,85.20
2017-10-09T02:07:32.592Z,85.34
2017-10-09T02:10:00.084Z,85.43
2017-10-09T02:12:27.610Z,85.60
2017-10-09T02:14:55.121Z,85.83
2017-10-09T02:17:22.604Z,85.96
2017-10-09T02:19:50.094Z,86.02
2017-10-09T02:22:17.629Z,86.08
2017-10-09T02:24:45.116Z,86.07
2017-10-09T02:27:12.605Z,86.27
2017-10-09T02:29:40.134Z,86.40
2017-10-09T02:32:07.623Z,86.55
2017-10-09T02:34:35.139Z,86.61
2017-10-09T02:37:02.672Z,86.67
2017-10-09T02:39:30.155Z,86.85
2017-10-09T02:41:57.634Z,86.91
2017-10-09T02:44:25.157Z,87.08
2017-10-09T02:46:52.644Z,87.07
2017-10-09T02:49:20.130Z,87.14
2017-10-09T02:51:47.738Z,87.20
2017-10-09T02:54:15.221Z,87.21
2017-10-09T02:56:42.710Z,87.38
2017-10-09T02:59:10.316Z,87.33
2017-10-09T03:01:37.801Z,87.35
2017-10-09T03:04:05.336Z,87.43
2017-10-09T03:06:32.836Z,87.56
2017-10-09T03:09:00.318Z,87.70
2017-10-09T03:11:27.833Z,87.74
2017-10-09T03:13:55.314Z,87.82
2017-10-09T03:16:22.800Z,87.99
2017-10-09T03:18:50.479Z,88.03
2017-10-09T03:21:17.960Z,88.00
2017-10-09T03:23:49.939Z,87.96
2017-10-09T03:26:22.993Z,87.99
2017-10-09T03:29:06.431Z,88.06
2017-10-09T03:31:33.916Z,88.05
2017-10-09T03:34:01.403Z,88.18
2017-10-09T03:36:28.928Z,88.15
2017-10-09T03:38:56.474Z,88.25
2017-10-09T03:41:23.956Z,88.29
2017-10-09T03:43:51.681Z,88.32
2017-10-09T03:46:19.166Z,88.38
2017-10-09T03:48:46.647Z,88.46
2017-10-09T03:51:14.161Z,88.42
2017-10-09T03:53:41.648Z,88.53
2017-10-09T03:56:09.176Z,88.65
2017-10-09T03:58:36.697Z,88.74
2017-10-09T04:01:04.183Z,88.83
2017-10-09T04:03:31.730Z,88.84
2017-10-09T04:05:59.214Z,88.94
2017-10-09T04:08:26.714Z,88.85
2017-10-09T04:10:54.251Z,88.85
2017-10-09T04:13:21.731Z,88.99
2017-10-09T04:15:49.222Z,89.06
2017-10-09T04:18:17.207Z,89.19
2017-10-09T04:20:44.689Z,89.23
2017-10-09T04:23:12.224Z,89.23
2017-10-09T04:25:40.187Z,89.32
2017-10-09T04:28:07.668Z,89.34
2017-10-09T04:30:35.144Z,89.44
2017-10-09T04:33:02.663Z,89.46
2017-10-09T04:35:30.244Z,89.37
2017-10-09T04:37:57.726Z,89.40
2017-10-09T04:40:25.303Z,89.29
2017-10-09T04:42:52.784Z,89.54
2017-10-09T04:45:20.283Z,89.51
2017-10-09T04:47:47.840Z,89.46
2017-10-09T04:50:15.325Z,89.46
2017-10-09T04:52:42.814Z,89.14
2017-10-09T04:55:11.083Z,89.37
2017-10-09T04:57:38.558Z,88.93
2017-10-09T05:00:06.050Z,88.71
2017-10-09T05:02:33.596Z,88.76
2017-10-09T05:05:01.086Z,89.00
2017-10-09T05:07:28.608Z,89.17
2017-10-09T05:09:56.151Z,89.12
2017-10-09T05:12:23.632Z,89.09
2017-10-09T05:14:51.107Z,88.70
2017-10-09T05:17:18.822Z,89.01
2017-10-09T05:19:46.295Z,89.07
2017-10-09T05:22:13.867Z,89.39
2017-10-09T05:24:41.374Z,88.65
2017-10-09T05:27:08.878Z,88.63
2017-10-09T05:29:36.524Z,88.92
2017-10-09T05:32:04.013Z,89.07
2017-10-09T05:34:31.543Z,88.63
2017-10-09T05:36:59.094Z,88.80
2017-10-09T05:39:26.642Z,88.78
2017-10-09T05:41:54.218Z,88.94
2017-10-09T05:44:21.782Z,88.82
2017-10-09T05:46:49.282Z,88.48
2017-10-09T05:49:16.763Z,88.68
2017-10-09T05:51:44.298Z,88.25
2017-10-09T05:54:11.798Z,88.34
2017-10-09T05:56:39.295Z,88.32
2017-10-09T05:59:07.023Z,88.24
2017-10-09T06:01:34.513Z,88.20
2017-10-09T06:04:02.047Z,88.21
2017-10-09T06:06:29.568Z,88.17
2017-10-09T06:08:57.056Z,87.73
2017-10-09T06:11:24.617Z,87.77
2017-10-09T06:13:52.188Z,87.77
2017-10-09T06:16:19.744Z,88.10
2017-10-09T06:18:47.223Z,87.82
2017-10-09T06:21:14.723Z,88.16
2017-10-09T06:23:42.219Z,87.20
2017-10-09T06:26:09.883Z,87.00
2017-10-09T06:28:37.440Z,86.96
2017-10-09T06:31:04.993Z,86.80
2017-10-09T06:33:32.499Z,86.65
2017-10-09T06:35:59.979Z,87.12
2017-10-09T06:38:27.514Z,86.55
2017-10-09T06:40:55.028Z,86.73
2017-10-09T06:43:22.524Z,87.02
2017-10-09T06:45:50.052Z,86.59
2017-10-09T06:48:17.538Z,86.74
2017-10-09T06:50:45.021Z,86.47
2017-10-09T06:53:12.537Z,86.16
2017-10-09T06:55:40.032Z,86.20
2017-10-09T06:58:07.507Z,86.47
2017-10-09T07:00:35.095Z,86.06
2017-10-09T07:03:02.584Z,85.62
2017-10-09T07:05:30.070Z,85.56
2017-10-09T07:07:57.667Z,85.57
2017-10-09T07:10:25.149Z,84.96
2017-10-09T07:12:52.705Z,84.49
2017-10-09T07:15:20.343Z,84.46
2017-10-09T07:17:47.904Z,84.21
2017-10-09T07:20:15.397Z,84.04
2017-10-09T07:22:42.903Z,84.19
2017-10-09T07:25:10.613Z,84.04
2017-10-09T07:27:38.112Z,83.93
2017-10-09T07:30:05.605Z,83.39
2017-10-09T07:32:33.150Z,83.18
2017-10-09T07:35:00.638Z,82.88
2017-10-09T07:37:28.126Z,82.94
2017-10-09T07:39:55.656Z,81.81
2017-10-09T07:42:23.194Z,81.42
2017-10-09T07:44:50.674Z,81.00
2017-10-09T07:47:18.195Z,80.63
2017-10-09T07:49:45.668Z,80.30
2017-10-09T07:52:13.159Z,79.11
2017-10-09T07:54:40.690Z,79.99
2017-10-09T07:57:23.040Z,78.61
2017-10-09T07:59:50.724Z,77.74
2017-10-09T08:02:18.216Z,77.92
2017-10-09T08:04:45.701Z,76.59
2017-10-09T08:07:13.198Z,75.88
2017-10-09T08:09:40.781Z,75.54
2017-10-09T08:12:08.290Z,75.41
2017-10-09T08:14:35.805Z,75.66
2017-10-09T08:17:03.366Z,75.92
2017-10-09T08:19:31.227Z,74.58
2017-10-09T08:21:58.712Z,74.14
2017-10-09T08:24:26.243Z,74.69
2017-10-09T08:26:53.767Z,75.15
2017-10-09T08:29:21.248Z,75.12
2017-10-09T08:31:48.921Z,72.57
2017-10-09T08:34:16.500Z,72.89
2017-10-09T08:36:43.978Z,73.14
2017-10-09T08:39:11.498Z,73.54
2017-10-09T08:41:39.024Z,73.09
2017-10-09T08:44:06.517Z,72.21
2017-10-09T08:46:34.005Z,72.19
2017-10-09T08:49:01.531Z,71.85
2017-10-09T08:51:29.016Z,71.56
2017-10-09T08:53:56.494Z,71.51
2017-10-09T08:56:24.057Z,71.55
2017-10-09T08:58:51.542Z,71.51
2017-10-09T09:01:19.028Z,71.36
2017-10-09T09:03:46.574Z,71.32
2017-10-09T09:06:14.052Z,71.07
2017-10-09T09:08:41.527Z,69.87
2017-10-09T09:11:09.047Z,69.24
2017-10-09T09:13:36.528Z,69.18
2017-10-09T09:16:04.014Z,68.99
2017-10-09T09:18:31.566Z,67.86
2017-10-09T09:20:59.078Z,68.14
2017-10-09T09:23:26.573Z,66.83
2017-10-09T09:25:54.096Z,66.65
2017-10-09T09:28:21.597Z,66.85
2017-10-09T09:30:49.083Z,67.77
2017-10-09T09:33:16.672Z,67.52
2017-10-09T09:35:44.160Z,66.57
2017-10-09T09:38:11.641Z,65.92
2017-10-09T09:40:39.196Z,65.41
2017-10-09T09:43:06.726Z,65.69
2017-10-09T09:45:34.214Z,65.47
2017-10-09T09:48:02.484Z,64.77
2017-10-09T09:50:29.962Z,64.51
2017-10-09T09:52:57.447Z,64.07
2017-10-09T09:55:24.983Z,64.30
2017-10-09T09:57:52.470Z,64.84
2017-10-09T10:00:19.959Z,64.53
2017-10-09T10:02:47.488Z,64.40
2017-10-09T10:05:14.975Z,64.11
2017-10-09T10:07:42.510Z,63.85
2017-10-09T10:10:09.997Z,63.16
2017-10-09T10:12:37.539Z,63.36
2017-10-09T10:15:05.065Z,63.33
2017-10-09T10:17:32.643Z,63.08
2017-10-09T10:20:00.214Z,62.95
2017-10-09T10:22:27.752Z,63.10
2017-10-09T10:24:55.236Z,62.12
2017-10-09T10:27:22.792Z,62.01
2017-10-09T10:29:50.342Z,61.59
2017-10-09T10:32:17.899Z,60.97
2017-10-09T10:34:45.452Z,59.59
2017-10-09T10:37:13.030Z,60.03
2017-10-09T10:39:40.571Z,60.35
2017-10-09T10:42:08.333Z,59.27
2017-10-09T10:44:35.831Z,59.44
2017-10-09T10:47:03.361Z,59.85
2017-10-09T10:49:30.890Z,58.82
2017-10-09T10:51:58.473Z,58.22
2017-10-09T10:54:25.964Z,58.01
2017-10-09T10:56:53.481Z,58.89
2017-10-09T10:59:20.970Z,59.44
2017-10-09T11:01:48.451Z,59.13
2017-10-09T11:04:15.976Z,59.63
2017-10-09T11:06:43.454Z,59.80
2017-10-09T11:09:10.950Z,60.60
2017-10-09T11:11:38.479Z,60.05
2017-10-09T11:14:05.990Z,58.93
2017-10-09T11:16:33.485Z,57.51
2017-10-09T11:19:01.028Z,57.86
2017-10-09T11:21:28.506Z,59.40
2017-10-09T11:23:56.003Z,58.91
2017-10-09T11:26:23.638Z,59.13
2017-10-09T11:28:51.146Z,58.97
2017-10-09T11:31:18.632Z,58.66
2017-10-09T11:33:46.146Z,58.27
2017-10-09T11:36:13.630Z,57.82
2017-10-09T11:38:41.154Z,56.67
2017-10-09T11:41:08.635Z,56.96
2017-10-09T11:43:36.123Z,57.12
2017-10-09T11:46:03.752Z,57.46
2017-10-09T11:48:31.302Z,56.92
2017-10-09T11:50:58.788Z,56.84
2017-10-09T11:53:26.327Z,56.38
2017-10-09T11:55:53.877Z,56.24
2017-10-09T11:58:21.369Z,56.43
2017-10-09T12:00:48.908Z,55.98
2017-10-09T12:03:16.396Z,56.13
2017-10-09T12:05:43.920Z,56.86
2017-10-09T12:08:11.443Z,56.08
2017-10-09T12:10:38.923Z,54.48
2017-10-09T12:13:06.415Z,54.99
2017-10-09T12:15:33.971Z,54.63
2017-10-09T12:18:01.476Z,55.18
2017-10-09T12:23:02.856Z,56.47
2017-10-09T12:25:30.342Z,56.45
2017-10-09T12:27:57.823Z,55.90
2017-10-09T12:30:25.366Z,55.76
2017-10-09T12:32:52.863Z,55.38
2017-10-09T12:35:20.345Z,54.98
2017-10-09T12:37:47.924Z,54.33
2017-10-09T12:40:15.415Z,53.64
2017-10-09T12:42:42.981Z,52.30
2017-10-09T12:45:10.513Z,52.45
2017-10-09T12:47:38.002Z,52.14
2017-10-09T12:50:05.500Z,51.71
2017-10-09T12:52:33.078Z,52.83
2017-10-09T12:55:00.575Z,53.72
2017-10-09T12:57:28.064Z,53.35
2017-10-09T12:59:55.593Z,53.85
2017-10-09T13:02:23.083Z,54.08
2017-10-09T13:04:50.690Z,54.55
2017-10-09T13:07:18.246Z,54.86
2017-10-09T13:09:45.740Z,55.08
2017-10-09T13:12:13.232Z,55.54
2017-10-09T13:14:40.959Z,55.53
2017-10-09T13:17:08.464Z,55.74
2017-10-09T13:19:35.951Z,56.42
2017-10-09T13:22:03.472Z,56.06
2017-10-09T13:24:30.960Z,56.04
2017-10-09T13:26:58.449Z,56.14
2017-10-09T13:29:26.151Z,55.39
2017-10-09T13:31:53.718Z,55.80
2017-10-09T13:34:21.203Z,54.66
2017-10-09T13:36:48.735Z,55.52
2017-10-09T13:39:16.299Z,56.96
2017-10-09T13:41:43.790Z,57.35
2017-10-09T13:44:11.320Z,57.62
2017-10-09T13:46:38.804Z,58.47
2017-10-09T13:49:06.530Z,59.35
2017-10-09T13:51:34.015Z,60.20
2017-10-09T13:54:01.503Z,61.14
2017-10-09T13:56:29.023Z,61.70
2017-10-09T13:58:56.508Z,61.85
2017-10-09T14:01:24.041Z,62.11
2017-10-09T14:03:51.562Z,62.43
2017-10-09T14:06:19.038Z,62.66
2017-10-09T14:08:46.588Z,63.09
2017-10-09T14:11:14.108Z,63.47
2017-10-09T14:13:41.588Z,63.94
2017-10-09T14:16:09.083Z,64.25
2017-10-09T14:18:36.836Z,65.14
2017-10-09T14:21:04.335Z,66.29
2017-10-09T14:23:31.829Z,66.84
2017-10-09T14:25:59.820Z,67.25
2017-10-09T14:28:27.402Z,69.51
2017-10-09T14:30:56.954Z,72.12
2017-10-09T14:40:47.026Z,76.19
2017-10-09T14:43:14.514Z,76.73
2017-10-09T14:45:42.035Z,76.71
2017-10-09T14:48:09.564Z,77.09
2017-10-09T14:50:37.061Z,76.80
2017-10-09T14:53:04.562Z,79.45
2017-10-09T14:55:32.104Z,82.86
2017-10-09T14:57:59.651Z,83.57
2017-10-09T15:00:27.161Z,84.55
2017-10-09T15:02:54.683Z,84.24
2017-10-09T15:05:22.192Z,85.30
2017-10-09T15:07:49.683Z,86.92
2017-10-09T15:10:17.431Z,87.58
2017-10-09T15:12:44.989Z,87.61
2017-10-09T15:15:12.481Z,87.53
2017-10-09T15:17:40.027Z,88.64
2017-10-09T15:20:07.522Z,88.59
2017-10-09T15:22:35.026Z,87.32
2017-10-09T15:25:02.541Z,87.64
2017-10-09T15:27:30.049Z,87.15
2017-10-09T15:29:57.595Z,86.76
2017-10-09T15:32:25.152Z,86.75
2017-10-09T15:34:52.635Z,87.53
2017-10-09T15:37:20.296Z,88.20
2017-10-09T15:39:47.783Z,88.00
2017-10-09T15:42:15.289Z,88.35
2017-10-09T15:44:42.812Z,88.55
2017-10-09T15:47:10.321Z,88.70
2017-10-09T15:49:37.865Z,89.31
2017-10-09T15:52:05.441Z,88.60
2017-10-09T15:54:33.025Z,88.90
2017-10-09T15:57:00.503Z,88.81
2017-10-09T15:59:28.301Z,88.75
2017-10-09T16:01:55.785Z,87.99
2017-10-09T16:04:23.300Z,88.24
2017-10-09T16:06:50.855Z,88.49
2017-10-09T16:09:18.352Z,88.56
2017-10-09T16:11:45.845Z,88.29
2017-10-09T16:14:13.397Z,88.47
2017-10-09T16:16:40.886Z,87.92
2017-10-09T16:19:08.386Z,87.88
2017-10-09T16:21:35.896Z,87.19
2017-10-09T16:24:03.371Z,86.73
2017-10-09T16:26:30.882Z,86.57
2017-10-09T16:28:58.371Z,85.98
2017-10-09T16:31:25.930Z,86.68
2017-10-09T16:33:53.417Z,86.89
2017-10-09T16:36:20.917Z,86.92
2017-10-09T16:38:48.443Z,87.12
2017-10-09T16:41:16.120Z,86.89
2017-10-09T16:43:43.615Z,86.82
2017-10-09T16:46:11.411Z,86.63
2017-10-09T16:48:38.975Z,87.05
2017-10-09T16:51:06.460Z,86.89
2017-10-09T16:53:33.996Z,86.93
2017-10-09T16:56:01.491Z,86.43
2017-10-09T16:58:29.012Z,86.51
2017-10-09T17:00:56.584Z,86.90
2017-10-09T17:03:24.089Z,86.58
2017-10-09T17:05:51.810Z,87.11
2017-10-09T17:08:19.300Z,87.19
2017-10-09T17:10:46.804Z,88.09
2017-10-09T17:13:14.384Z,87.30
2017-10-09T17:15:41.879Z,87.54
2017-10-09T17:18:09.365Z,88.18
2017-10-09T17:20:36.875Z,88.86
2017-10-09T17:23:04.398Z,88.99
2017-10-09T17:25:31.946Z,89.34
2017-10-09T17:27:59.816Z,89.79
2017-10-09T17:30:27.305Z,89.88
2017-10-09T17:32:54.786Z,90.07
2017-10-09T17:35:22.395Z,89.98
2017-10-09T17:37:49.893Z,90.02
2017-10-09T17:40:17.386Z,90.30
2017-10-09T17:42:44.914Z,90.32
2017-10-09T17:45:12.407Z,90.04
2017-10-09T17:47:39.901Z,90.39
2017-10-09T17:50:07.478Z,90.46
2017-10-09T17:52:34.971Z,90.48
2017-10-09T17:55:02.458Z,90.11
2017-10-09T17:57:30.015Z,90.12
2017-10-09T17:59:57.509Z,90.10
2017-10-09T18:02:25.032Z,90.50
2017-10-09T18:04:52.597Z,90.28
2017-10-09T18:07:20.140Z,89.97
2017-10-09T18:09:47.632Z,90.04
2017-10-09T18:12:15.169Z,89.95
2017-10-09T18:14:42.726Z,90.00
2017-10-09T18:17:10.208Z,89.93
2017-10-09T18:19:37.731Z,89.78
2017-10-09T18:22:05.248Z,89.65
2017-10-09T18:24:32.729Z,89.71
2017-10-09T18:27:00.228Z,89.63
2017-10-09T18:29:27.762Z,89.80
2017-10-09T18:31:55.278Z,90.04
2017-10-09T18:34:22.820Z,89.93
2017-10-09T18:36:50.300Z,89.79
2017-10-09T18:39:17.802Z,89.99
2017-10-09T18:41:45.345Z,90.08
2017-10-09T18:44:12.838Z,89.51
2017-10-09T18:46:40.323Z,89.71
2017-10-09T18:49:07.851Z,89.55
2017-10-09T18:51:35.354Z,89.19
2017-10-09T18:54:02.832Z,89.22
2017-10-09T18:56:30.357Z,89.23
2017-10-09T18:58:57.845Z,88.75
2017-10-09T19:01:25.336Z,88.99
2017-10-09T19:03:52.851Z,88.71
2017-10-09T19:06:20.337Z,89.21
2017-10-09T19:08:47.820Z,88.98
2017-10-09T19:11:15.353Z,88.93
2017-10-09T19:13:42.832Z,89.00
2017-10-09T19:16:10.337Z,89.19
2017-10-09T19:18:37.862Z,88.52
2017-10-09T19:21:05.359Z,88.60
2017-10-09T19:23:32.967Z,88.19
2017-10-09T19:26:00.470Z,88.36
2017-10-09T19:28:27.952Z,88.08
2017-10-09T19:30:55.491Z,88.28
2017-10-09T19:33:23.000Z,88.45
2017-10-09T19:35:50.564Z,88.28
2017-10-09T19:38:18.095Z,88.76
2017-10-09T19:40:45.581Z,88.95
2017-10-09T19:43:13.135Z,88.99
2017-10-09T19:45:40.688Z,88.59
2017-10-09T19:48:08.163Z,88.04
2017-10-09T19:50:35.658Z,88.38
2017-10-09T19:53:03.262Z,88.59
2017-10-09T19:55:30.824Z,88.71
2017-10-09T19:57:58.330Z,88.43
2017-10-09T20:00:25.880Z,88.24
2017-10-09T20:02:53.407Z,88.19
2017-10-09T20:05:20.904Z,88.25
2017-10-09T20:07:48.401Z,88.56
2017-10-09T20:10:15.976Z,89.01
2017-10-09T20:12:43.453Z,88.75
2017-10-09T20:15:10.954Z,88.42
2017-10-09T20:17:38.569Z,88.37
2017-10-09T20:20:06.056Z,88.54
2017-10-09T20:22:33.562Z,88.38
2017-10-09T20:25:01.149Z,89.00
2017-10-09T20:27:28.693Z,88.97
2017-10-09T20:29:56.188Z,88.78
2017-10-09T20:32:24.687Z,89.22
2017-10-09T20:34:52.188Z,88.75
2017-10-09T20:37:19.700Z,89.08
2017-10-09T20:39:47.311Z,88.91
2017-10-09T20:42:14.796Z,88.81
2017-10-09T20:44:42.289Z,89.15
2017-10-09T20:47:10.086Z,89.04
2017-10-09T20:49:37.576Z,88.81
2017-10-09T20:52:05.120Z,89.03
2017-10-09T20:54:32.654Z,88.80
2017-10-09T20:57:00.234Z,88.41
2017-10-09T20:59:27.721Z,88.65
2017-10-09T21:01:55.344Z,88.77
2017-10-09T21:04:22.835Z,88.41
2017-10-09T21:06:50.355Z,88.15
2017-10-09T21:09:17.911Z,87.97
2017-10-09T21:11:45.464Z,88.03
2017-10-09T21:14:12.948Z,87.63
2017-10-09T21:16:40.484Z,87.78
2017-10-09T21:19:07.973Z,87.49
2017-10-09T21:21:35.524Z,87.40
2017-10-09T21:24:03.081Z,87.67
2017-10-09T21:26:30.568Z,88.17
2017-10-09T21:28:58.063Z,87.35
2017-10-09T21:31:25.603Z,87.50
2017-10-09T21:33:53.086Z,87.67
2017-10-09T21:36:20.659Z,87.60
2017-10-09T21:38:48.219Z,87.58
2017-10-09T21:41:15.708Z,87.56
2017-10-09T21:43:43.215Z,87.68
2017-10-09T21:46:10.798Z,87.74
2017-10-09T21:48:38.304Z,87.89
2017-10-09T21:51:05.788Z,88.03
2017-10-09T21:53:33.367Z,88.04
2017-10-09T21:56:00.861Z,88.26
2017-10-09T21:58:28.344Z,88.22
2017-10-09T22:00:55.867Z,88.49
2017-10-09T22:03:23.348Z,88.62
2017-10-09T22:05:50.832Z,89.14
2017-10-09T22:08:18.370Z,89.19
2017-10-09T22:10:45.890Z,89.40
2017-10-09T22:13:13.375Z,89.83
2017-10-09T22:15:40.901Z,90.10
2017-10-09T22:18:08.411Z,90.31
2017-10-09T22:20:35.917Z,90.44
2017-10-09T22:23:03.445Z,90.46
2017-10-09T22:25:30.923Z,90.77
2017-10-09T22:27:58.407Z,90.63
2017-10-09T22:30:25.939Z,91.29
2017-10-09T22:32:53.421Z,90.52
2017-10-09T22:35:20.963Z,90.80
2017-10-09T22:37:48.452Z,91.26
2017-10-09T22:40:15.944Z,91.41
2017-10-09T22:42:43.524Z,91.62
2017-10-09T22:45:11.095Z,92.08
2017-10-09T22:47:38.583Z,92.20
2017-10-09T22:50:06.280Z,92.51
2017-10-09T22:52:33.764Z,92.45
2017-10-09T22:55:01.254Z,92.25
2017-10-09T22:57:28.789Z,92.60
2017-10-09T22:59:56.276Z,92.64
2017-10-09T23:02:23.794Z,92.72
2017-10-09T23:04:51.324Z,93.01
2017-10-09T23:07:18.808Z,93.19
2017-10-09T23:09:46.368Z,93.03
2017-10-09T23:12:13.882Z,92.94
2017-10-09T23:14:41.410Z,93.05
2017-10-09T23:17:08.903Z,93.12
2017-10-09T23:19:36.429Z,93.26
2017-10-09T23:22:03.916Z,93.15
2017-10-09T23:24:31.425Z,93.34
2017-10-09T23:26:58.979Z,93.32
2017-10-09T23:29:26.538Z,93.21
2017-10-09T23:31:54.039Z,93.27
2017-10-09T23:34:21.665Z,93.58
2017-10-09T23:36:49.166Z,93.75
2017-10-09T23:39:16.665Z,93.70
2017-10-09T23:41:44.191Z,93.76
2017-10-09T23:44:11.675Z,93.82
2017-10-09T23:46:39.171Z,93.86
2017-10-09T23:49:06.908Z,93.64
2017-10-09T23:51:34.476Z,93.72
2017-10-09T23:54:01.960Z,93.63
2017-10-09T23:56:29.787Z,93.92
2017-10-09T23:58:57.279Z,93.54
